sensor_id;sensor_type;location;lat;lon;timestamp;pressure;altitude;pressure_sealevel;temperature;humidity
54882;BME280;40775;51.448;4.742;2023-02-19T00:01:46;101849.28;;;11.69;100.00
54882;BME280;40775;51.448;4.742;2023-02-19T00:04:19;101852.78;;;11.68;100.00
54882;BME280;40775;51.448;4.742;2023-02-19T00:06:48;101864.13;;;11.67;100.00
54882;BME280;40775;51.448;4.742;2023-02-19T00:09:17;101867.66;;;11.67;100.00
54882;BME280;40775;51.448;4.742;2023-02-19T00:11:44;101875.47;;;11.64;100.00
54882;BME280;40775;51.448;4.742;2023-02-19T00:14:18;101865.00;;;11.66;100.00
54882;BME280;40775;51.448;4.742;2023-02-19T00:16:47;101869.44;;;11.68;100.00
54882;BME280;40775;51.448;4.742;2023-02-19T00:19:17;101865.88;;;11.66;100.00
54882;BME280;40775;51.448;4.742;2023-02-19T00:21:45;101860.63;;;11.66;100.00
54882;BME280;40775;51.448;4.742;2023-02-19T00:24:13;101872.88;;;11.66;100.00
54882;BME280;40775;51.448;4.742;2023-02-19T00:26:41;101854.38;;;11.63;100.00
54882;BME280;40775;51.448;4.742;2023-02-19T00:29:14;101868.47;;;11.65;100.00
54882;BME280;40775;51.448;4.742;2023-02-19T00:31:43;101854.31;;;11.61;100.00
54882;BME280;40775;51.448;4.742;2023-02-19T00:34:12;101851.88;;;11.67;100.00
54882;BME280;40775;51.448;4.742;2023-02-19T00:36:40;101857.75;;;11.59;100.00
54882;BME280;40775;51.448;4.742;2023-02-19T00:39:11;101858.59;;;11.58;100.00
54882;BME280;40775;51.448;4.742;2023-02-19T00:41:39;101858.78;;;11.64;100.00
54882;BME280;40775;51.448;4.742;2023-02-19T00:44:09;101865.69;;;11.60;100.00
54882;BME280;40775;51.448;4.742;2023-02-19T00:46:42;101870.94;;;11.60;100.00
54882;BME280;40775;51.448;4.742;2023-02-19T00:49:19;101876.13;;;11.57;100.00
54882;BME280;40775;51.448;4.742;2023-02-19T00:51:47;101871.66;;;11.55;100.00
54882;BME280;40775;51.448;4.742;2023-02-19T00:54:15;101882.16;;;11.55;100.00
54882;BME280;40775;51.448;4.742;2023-02-19T00:56:43;101877.75;;;11.54;100.00
54882;BME280;40775;51.448;4.742;2023-02-19T00:59:10;101883.63;;;11.46;100.00
54882;BME280;40775;51.448;4.742;2023-02-19T01:01:37;101887.94;;;11.44;100.00
54882;BME280;40775;51.448;4.742;2023-02-19T01:04:05;101887.31;;;11.52;100.00
54882;BME280;40775;51.448;4.742;2023-02-19T01:06:32;101894.16;;;11.46;100.00
54882;BME280;40775;51.448;4.742;2023-02-19T01:09:00;101895.72;;;11.41;100.00
54882;BME280;40775;51.448;4.742;2023-02-19T01:11:28;101885.31;;;11.44;100.00
54882;BME280;40775;51.448;4.742;2023-02-19T01:13:59;101893.19;;;11.44;100.00
54882;BME280;40775;51.448;4.742;2023-02-19T01:16:28;101895.84;;;11.44;100.00
54882;BME280;40775;51.448;4.742;2023-02-19T01:18:57;101894.84;;;11.41;100.00
54882;BME280;40775;51.448;4.742;2023-02-19T01:21:26;101894.78;;;11.39;100.00
54882;BME280;40775;51.448;4.742;2023-02-19T01:23:57;101899.22;;;11.40;100.00
54882;BME280;40775;51.448;4.742;2023-02-19T01:26:29;101897.41;;;11.39;100.00
54882;BME280;40775;51.448;4.742;2023-02-19T01:28:58;101912.25;;;11.37;100.00
54882;BME280;40775;51.448;4.742;2023-02-19T01:31:26;101897.13;;;11.30;100.00
54882;BME280;40775;51.448;4.742;2023-02-19T01:33:56;101899.09;;;11.37;100.00
54882;BME280;40775;51.448;4.742;2023-02-19T01:36:25;101900.78;;;11.35;100.00
54882;BME280;40775;51.448;4.742;2023-02-19T01:38:53;101897.31;;;11.36;100.00
54882;BME280;40775;51.448;4.742;2023-02-19T01:41:24;101904.25;;;11.34;100.00
54882;BME280;40775;51.448;4.742;2023-02-19T01:46:44;101913.09;;;11.36;100.00
54882;BME280;40775;51.448;4.742;2023-02-19T01:52:40;101900.59;;;11.29;100.00
54882;BME280;40775;51.448;4.742;2023-02-19T01:55:02;101901.53;;;11.31;100.00
54882;BME280;40775;51.448;4.742;2023-02-19T01:57:35;101892.81;;;11.32;100.00
54882;BME280;40775;51.448;4.742;2023-02-19T02:00:13;101900.50;;;11.26;100.00
54882;BME280;40775;51.448;4.742;2023-02-19T02:02:44;101899.69;;;11.29;100.00
54882;BME280;40775;51.448;4.742;2023-02-19T02:05:39;101889.13;;;11.27;100.00
54882;BME280;40775;51.448;4.742;2023-02-19T02:08:07;101895.28;;;11.28;100.00
54882;BME280;40775;51.448;4.742;2023-02-19T02:10:54;101892.66;;;11.28;100.00
54882;BME280;40775;51.448;4.742;2023-02-19T02:13:22;101898.69;;;11.25;100.00
54882;BME280;40775;51.448;4.742;2023-02-19T02:16:23;101901.38;;;11.27;100.00
54882;BME280;40775;51.448;4.742;2023-02-19T02:22:36;101902.84;;;11.19;100.00
54882;BME280;40775;51.448;4.742;2023-02-19T02:31:46;101907.94;;;11.14;100.00
54882;BME280;40775;51.448;4.742;2023-02-19T02:34:18;101909.63;;;11.12;100.00
54882;BME280;40775;51.448;4.742;2023-02-19T02:36:51;101906.88;;;11.09;100.00
54882;BME280;40775;51.448;4.742;2023-02-19T02:39:24;101905.88;;;11.05;100.00
54882;BME280;40775;51.448;4.742;2023-02-19T02:41:58;101910.03;;;10.99;100.00
54882;BME280;40775;51.448;4.742;2023-02-19T02:44:44;101915.50;;;11.05;100.00
54882;BME280;40775;51.448;4.742;2023-02-19T02:47:36;101908.34;;;11.01;100.00
54882;BME280;40775;51.448;4.742;2023-02-19T02:50:25;101916.28;;;11.02;100.00
54882;BME280;40775;51.448;4.742;2023-02-19T02:53:02;101914.34;;;10.97;100.00
54882;BME280;40775;51.448;4.742;2023-02-19T02:55:51;101926.59;;;10.96;100.00
54882;BME280;40775;51.448;4.742;2023-02-19T02:58:22;101921.25;;;10.95;100.00
54882;BME280;40775;51.448;4.742;2023-02-19T03:01:05;101928.31;;;10.96;100.00
54882;BME280;40775;51.448;4.742;2023-02-19T03:03:59;101929.84;;;10.91;100.00
54882;BME280;40775;51.448;4.742;2023-02-19T03:06:30;101932.50;;;10.91;100.00
54882;BME280;40775;51.448;4.742;2023-02-19T03:09:09;101935.97;;;10.90;100.00
54882;BME280;40775;51.448;4.742;2023-02-19T03:11:41;101932.38;;;10.88;100.00
54882;BME280;40775;51.448;4.742;2023-02-19T03:14:41;101935.91;;;10.88;100.00
54882;BME280;40775;51.448;4.742;2023-02-19T03:17:41;101932.28;;;10.84;100.00
54882;BME280;40775;51.448;4.742;2023-02-19T03:20:29;101932.53;;;10.92;100.00
54882;BME280;40775;51.448;4.742;2023-02-19T03:22:59;101940.25;;;10.88;100.00
54882;BME280;40775;51.448;4.742;2023-02-19T03:25:31;101931.50;;;10.87;100.00
54882;BME280;40775;51.448;4.742;2023-02-19T03:28:23;101934.00;;;10.84;100.00
54882;BME280;40775;51.448;4.742;2023-02-19T03:31:14;101926.13;;;10.84;100.00
54882;BME280;40775;51.448;4.742;2023-02-19T03:33:49;101940.03;;;10.81;100.00
54882;BME280;40775;51.448;4.742;2023-02-19T03:36:18;101943.63;;;10.83;100.00
54882;BME280;40775;51.448;4.742;2023-02-19T03:38:58;101951.59;;;10.87;100.00
54882;BME280;40775;51.448;4.742;2023-02-19T03:42:01;101943.78;;;10.88;100.00
54882;BME280;40775;51.448;4.742;2023-02-19T03:45:17;101946.34;;;10.87;100.00
54882;BME280;40775;51.448;4.742;2023-02-19T03:48:07;101952.28;;;10.81;100.00
54882;BME280;40775;51.448;4.742;2023-02-19T03:50:54;101955.81;;;10.81;100.00
54882;BME280;40775;51.448;4.742;2023-02-19T03:59:54;101961.50;;;10.94;100.00
54882;BME280;40775;51.448;4.742;2023-02-19T04:02:58;101965.81;;;10.92;100.00
54882;BME280;40775;51.448;4.742;2023-02-19T04:05:34;101968.28;;;10.87;100.00
54882;BME280;40775;51.448;4.742;2023-02-19T04:08:13;101980.41;;;10.83;100.00
54882;BME280;40775;51.448;4.742;2023-02-19T04:10:45;101971.78;;;10.88;100.00
54882;BME280;40775;51.448;4.742;2023-02-19T04:13:32;101978.00;;;10.90;100.00
54882;BME280;40775;51.448;4.742;2023-02-19T04:16:10;101986.59;;;10.86;100.00
54882;BME280;40775;51.448;4.742;2023-02-19T04:18:40;101977.25;;;10.94;100.00
54882;BME280;40775;51.448;4.742;2023-02-19T04:21:09;101989.44;;;10.92;100.00
54882;BME280;40775;51.448;4.742;2023-02-19T04:23:42;101994.59;;;10.89;100.00
54882;BME280;40775;51.448;4.742;2023-02-19T04:26:12;101981.25;;;10.82;100.00
54882;BME280;40775;51.448;4.742;2023-02-19T04:28:40;101985.88;;;10.90;100.00
54882;BME280;40775;51.448;4.742;2023-02-19T04:31:09;101993.53;;;10.83;100.00
54882;BME280;40775;51.448;4.742;2023-02-19T04:33:38;101995.03;;;10.77;100.00
54882;BME280;40775;51.448;4.742;2023-02-19T04:36:08;102000.53;;;10.83;100.00
54882;BME280;40775;51.448;4.742;2023-02-19T04:38:35;101999.69;;;10.84;100.00
54882;BME280;40775;51.448;4.742;2023-02-19T04:41:03;102000.25;;;10.75;100.00
54882;BME280;40775;51.448;4.742;2023-02-19T04:43:30;102006.88;;;10.90;100.00
54882;BME280;40775;51.448;4.742;2023-02-19T04:46:00;102017.22;;;10.85;100.00
54882;BME280;40775;51.448;4.742;2023-02-19T04:48:28;102019.91;;;10.87;100.00
54882;BME280;40775;51.448;4.742;2023-02-19T04:50:55;102018.00;;;10.82;100.00
54882;BME280;40775;51.448;4.742;2023-02-19T04:53:22;102028.41;;;10.79;100.00
54882;BME280;40775;51.448;4.742;2023-02-19T04:55:49;102022.59;;;10.88;100.00
54882;BME280;40775;51.448;4.742;2023-02-19T04:58:19;102025.94;;;10.84;100.00
54882;BME280;40775;51.448;4.742;2023-02-19T05:00:51;102034.63;;;10.81;100.00
54882;BME280;40775;51.448;4.742;2023-02-19T05:03:18;102035.22;;;10.74;100.00
54882;BME280;40775;51.448;4.742;2023-02-19T05:05:45;102039.97;;;10.84;100.00
54882;BME280;40775;51.448;4.742;2023-02-19T05:08:12;102031.22;;;10.84;100.00
54882;BME280;40775;51.448;4.742;2023-02-19T05:10:39;102033.78;;;10.82;100.00
54882;BME280;40775;51.448;4.742;2023-02-19T05:13:07;102050.50;;;10.84;100.00
54882;BME280;40775;51.448;4.742;2023-02-19T05:15:34;102060.16;;;10.86;100.00
54882;BME280;40775;51.448;4.742;2023-02-19T05:18:01;102053.91;;;10.82;100.00
54882;BME280;40775;51.448;4.742;2023-02-19T05:20:28;102065.19;;;10.79;100.00
54882;BME280;40775;51.448;4.742;2023-02-19T05:22:55;102066.84;;;10.77;100.00
54882;BME280;40775;51.448;4.742;2023-02-19T05:25:22;102063.38;;;10.78;100.00
54882;BME280;40775;51.448;4.742;2023-02-19T05:27:49;102067.88;;;10.81;100.00
54882;BME280;40775;51.448;4.742;2023-02-19T05:30:36;102083.69;;;10.82;100.00
54882;BME280;40775;51.448;4.742;2023-02-19T05:33:03;102075.34;;;10.70;100.00
54882;BME280;40775;51.448;4.742;2023-02-19T05:35:30;102084.28;;;10.75;100.00
54882;BME280;40775;51.448;4.742;2023-02-19T05:37:57;102086.75;;;10.71;100.00
54882;BME280;40775;51.448;4.742;2023-02-19T05:40:24;102093.78;;;10.72;100.00
54882;BME280;40775;51.448;4.742;2023-02-19T05:42:51;102086.09;;;10.76;100.00
54882;BME280;40775;51.448;4.742;2023-02-19T05:45:18;102085.19;;;10.76;100.00
54882;BME280;40775;51.448;4.742;2023-02-19T05:47:45;102097.75;;;10.62;100.00
54882;BME280;40775;51.448;4.742;2023-02-19T05:50:12;102085.84;;;10.70;100.00
54882;BME280;40775;51.448;4.742;2023-02-19T05:52:39;102096.19;;;10.67;100.00
54882;BME280;40775;51.448;4.742;2023-02-19T05:55:06;102091.84;;;10.68;100.00
54882;BME280;40775;51.448;4.742;2023-02-19T05:57:42;102094.78;;;10.75;100.00
54882;BME280;40775;51.448;4.742;2023-02-19T06:00:15;102103.78;;;10.60;100.00
54882;BME280;40775;51.448;4.742;2023-02-19T06:02:43;102095.13;;;10.62;100.00
54882;BME280;40775;51.448;4.742;2023-02-19T06:05:11;102095.59;;;10.52;100.00
54882;BME280;40775;51.448;4.742;2023-02-19T06:07:38;102090.53;;;10.57;100.00
54882;BME280;40775;51.448;4.742;2023-02-19T06:10:06;102106.09;;;10.52;100.00
54882;BME280;40775;51.448;4.742;2023-02-19T06:12:33;102098.41;;;10.57;100.00
54882;BME280;40775;51.448;4.742;2023-02-19T06:15:00;102108.00;;;10.56;100.00
54882;BME280;40775;51.448;4.742;2023-02-19T06:17:27;102105.88;;;10.46;100.00
54882;BME280;40775;51.448;4.742;2023-02-19T06:19:54;102112.31;;;10.54;100.00
54882;BME280;40775;51.448;4.742;2023-02-19T06:22:21;102122.88;;;10.56;100.00
54882;BME280;40775;51.448;4.742;2023-02-19T06:24:48;102121.69;;;10.47;100.00
54882;BME280;40775;51.448;4.742;2023-02-19T06:27:15;102134.63;;;10.43;100.00
54882;BME280;40775;51.448;4.742;2023-02-19T06:29:42;102134.03;;;10.50;100.00
54882;BME280;40775;51.448;4.742;2023-02-19T06:32:09;102136.41;;;10.44;100.00
54882;BME280;40775;51.448;4.742;2023-02-19T06:34:37;102137.72;;;10.34;100.00
54882;BME280;40775;51.448;4.742;2023-02-19T06:37:04;102137.50;;;10.49;100.00
54882;BME280;40775;51.448;4.742;2023-02-19T06:39:31;102151.88;;;10.38;100.00
54882;BME280;40775;51.448;4.742;2023-02-19T06:41:58;102148.13;;;10.52;100.00
54882;BME280;40775;51.448;4.742;2023-02-19T06:44:25;102141.06;;;10.51;100.00
54882;BME280;40775;51.448;4.742;2023-02-19T06:46:54;102142.69;;;10.47;100.00
54882;BME280;40775;51.448;4.742;2023-02-19T06:49:21;102163.03;;;10.32;100.00
54882;BME280;40775;51.448;4.742;2023-02-19T06:51:49;102167.19;;;10.48;100.00
54882;BME280;40775;51.448;4.742;2023-02-19T06:54:16;102158.34;;;10.25;100.00
54882;BME280;40775;51.448;4.742;2023-02-19T06:56:43;102162.72;;;10.45;100.00
54882;BME280;40775;51.448;4.742;2023-02-19T06:59:14;102163.03;;;10.32;100.00
54882;BME280;40775;51.448;4.742;2023-02-19T07:01:45;102166.19;;;10.44;100.00
54882;BME280;40775;51.448;4.742;2023-02-19T07:04:12;102163.75;;;10.49;100.00
54882;BME280;40775;51.448;4.742;2023-02-19T07:06:39;102172.34;;;10.45;100.00
54882;BME280;40775;51.448;4.742;2023-02-19T07:09:08;102181.81;;;10.41;100.00
54882;BME280;40775;51.448;4.742;2023-02-19T07:11:38;102182.84;;;10.45;100.00
54882;BME280;40775;51.448;4.742;2023-02-19T07:14:07;102186.78;;;10.35;100.00
54882;BME280;40775;51.448;4.742;2023-02-19T07:16:35;102189.41;;;10.35;100.00
54882;BME280;40775;51.448;4.742;2023-02-19T07:19:03;102190.75;;;10.26;100.00
54882;BME280;40775;51.448;4.742;2023-02-19T07:21:30;102200.09;;;10.40;100.00
54882;BME280;40775;51.448;4.742;2023-02-19T07:23:57;102190.28;;;10.36;100.00
54882;BME280;40775;51.448;4.742;2023-02-19T07:26:24;102205.22;;;10.37;100.00
54882;BME280;40775;51.448;4.742;2023-02-19T07:28:51;102204.97;;;10.31;100.00
54882;BME280;40775;51.448;4.742;2023-02-19T07:31:22;102209.56;;;10.36;100.00
54882;BME280;40775;51.448;4.742;2023-02-19T07:33:50;102220.97;;;10.37;100.00
54882;BME280;40775;51.448;4.742;2023-02-19T07:36:18;102222.75;;;10.38;100.00
54882;BME280;40775;51.448;4.742;2023-02-19T07:38:46;102227.88;;;10.35;100.00
54882;BME280;40775;51.448;4.742;2023-02-19T07:41:13;102230.84;;;10.42;100.00
54882;BME280;40775;51.448;4.742;2023-02-19T07:43:40;102229.97;;;10.42;100.00
54882;BME280;40775;51.448;4.742;2023-02-19T07:46:11;102238.38;;;10.35;100.00
54882;BME280;40775;51.448;4.742;2023-02-19T07:48:40;102229.88;;;10.40;100.00
54882;BME280;40775;51.448;4.742;2023-02-19T07:51:13;102242.19;;;10.41;100.00
54882;BME280;40775;51.448;4.742;2023-02-19T07:53:42;102253.38;;;10.37;100.00
54882;BME280;40775;51.448;4.742;2023-02-19T07:56:10;102260.06;;;10.50;100.00
54882;BME280;40775;51.448;4.742;2023-02-19T07:58:38;102261.84;;;10.51;100.00
54882;BME280;40775;51.448;4.742;2023-02-19T08:01:21;102266.72;;;10.42;100.00
54882;BME280;40775;51.448;4.742;2023-02-19T08:04:07;102281.84;;;10.47;100.00
54882;BME280;40775;51.448;4.742;2023-02-19T08:06:35;102279.16;;;10.46;100.00
54882;BME280;40775;51.448;4.742;2023-02-19T08:09:03;102287.16;;;10.49;100.00
54882;BME280;40775;51.448;4.742;2023-02-19T08:11:31;102282.34;;;10.60;100.00
54882;BME280;40775;51.448;4.742;2023-02-19T08:14:16;102285.34;;;10.48;100.00
54882;BME280;40775;51.448;4.742;2023-02-19T08:16:50;102287.34;;;10.53;100.00
54882;BME280;40775;51.448;4.742;2023-02-19T08:19:18;102294.53;;;10.58;100.00
54882;BME280;40775;51.448;4.742;2023-02-19T08:21:45;102290.94;;;10.56;100.00
54882;BME280;40775;51.448;4.742;2023-02-19T08:24:12;102296.06;;;10.52;100.00
54882;BME280;40775;51.448;4.742;2023-02-19T08:26:39;102303.88;;;10.51;100.00
54882;BME280;40775;51.448;4.742;2023-02-19T08:29:06;102311.38;;;10.63;100.00
54882;BME280;40775;51.448;4.742;2023-02-19T08:31:34;102311.94;;;10.56;100.00
54882;BME280;40775;51.448;4.742;2023-02-19T08:34:01;102309.25;;;10.54;100.00
54882;BME280;40775;51.448;4.742;2023-02-19T08:36:29;102311.38;;;10.63;100.00
54882;BME280;40775;51.448;4.742;2023-02-19T08:38:56;102318.78;;;10.52;100.00
54882;BME280;40775;51.448;4.742;2023-02-19T08:41:23;102319.44;;;10.67;100.00
54882;BME280;40775;51.448;4.742;2023-02-19T08:43:50;102321.69;;;10.58;100.00
54882;BME280;40775;51.448;4.742;2023-02-19T08:46:17;102315.91;;;10.67;100.00
54882;BME280;40775;51.448;4.742;2023-02-19T08:48:44;102309.94;;;10.50;100.00
54882;BME280;40775;51.448;4.742;2023-02-19T08:51:11;102303.91;;;10.72;100.00
54882;BME280;40775;51.448;4.742;2023-02-19T08:53:40;102314.34;;;10.70;100.00
54882;BME280;40775;51.448;4.742;2023-02-19T08:56:13;102310.75;;;10.68;100.00
54882;BME280;40775;51.448;4.742;2023-02-19T08:58:41;102319.72;;;10.73;100.00
54882;BME280;40775;51.448;4.742;2023-02-19T09:01:15;102324.03;;;10.71;100.00
54882;BME280;40775;51.448;4.742;2023-02-19T09:03:44;102325.19;;;10.78;100.00
54882;BME280;40775;51.448;4.742;2023-02-19T09:06:17;102325.38;;;10.82;100.00
54882;BME280;40775;51.448;4.742;2023-02-19T09:08:44;102320.06;;;10.81;100.00
54882;BME280;40775;51.448;4.742;2023-02-19T09:11:11;102328.97;;;10.84;100.00
54882;BME280;40775;51.448;4.742;2023-02-19T09:13:39;102338.38;;;10.79;100.00
54882;BME280;40775;51.448;4.742;2023-02-19T09:16:07;102344.84;;;10.88;100.00
54882;BME280;40775;51.448;4.742;2023-02-19T09:18:35;102338.44;;;10.81;100.00
54882;BME280;40775;51.448;4.742;2023-02-19T09:21:04;102337.03;;;10.68;100.00
54882;BME280;40775;51.448;4.742;2023-02-19T09:23:33;102339.09;;;10.75;100.00
54882;BME280;40775;51.448;4.742;2023-02-19T09:26:00;102333.13;;;10.79;100.00
54882;BME280;40775;51.448;4.742;2023-02-19T09:28:29;102330.78;;;10.66;100.00
54882;BME280;40775;51.448;4.742;2023-02-19T09:30:56;102342.19;;;10.67;100.00
54882;BME280;40775;51.448;4.742;2023-02-19T09:33:23;102340.19;;;10.80;100.00
54882;BME280;40775;51.448;4.742;2023-02-19T09:35:50;102340.47;;;10.67;100.00
54882;BME280;40775;51.448;4.742;2023-02-19T09:38:18;102356.00;;;10.63;100.00
54882;BME280;40775;51.448;4.742;2023-02-19T09:40:45;102349.16;;;10.86;100.00
54882;BME280;40775;51.448;4.742;2023-02-19T09:43:18;102351.13;;;10.70;100.00
54882;BME280;40775;51.448;4.742;2023-02-19T09:45:47;102351.59;;;10.81;100.00
54882;BME280;40775;51.448;4.742;2023-02-19T09:48:15;102355.81;;;10.77;100.00
54882;BME280;40775;51.448;4.742;2023-02-19T09:50:47;102367.41;;;10.82;100.00
54882;BME280;40775;51.448;4.742;2023-02-19T09:53:27;102369.00;;;10.79;100.00
54882;BME280;40775;51.448;4.742;2023-02-19T09:55:56;102364.66;;;10.79;100.00
54882;BME280;40775;51.448;4.742;2023-02-19T09:58:34;102384.63;;;10.76;100.00
54882;BME280;40775;51.448;4.742;2023-02-19T10:01:03;102386.25;;;10.93;100.00
54882;BME280;40775;51.448;4.742;2023-02-19T10:03:37;102383.78;;;10.96;100.00
54882;BME280;40775;51.448;4.742;2023-02-19T10:06:20;102380.09;;;10.93;100.00
54882;BME280;40775;51.448;4.742;2023-02-19T10:08:55;102383.69;;;10.95;100.00
54882;BME280;40775;51.448;4.742;2023-02-19T10:11:25;102382.34;;;10.83;100.00
54882;BME280;40775;51.448;4.742;2023-02-19T10:14:04;102394.38;;;10.98;100.00
54882;BME280;40775;51.448;4.742;2023-02-19T10:16:39;102405.47;;;10.92;100.00
54882;BME280;40775;51.448;4.742;2023-02-19T10:19:13;102404.31;;;11.05;100.00
54882;BME280;40775;51.448;4.742;2023-02-19T10:21:41;102405.25;;;11.07;100.00
54882;BME280;40775;51.448;4.742;2023-02-19T10:24:23;102406.41;;;11.13;100.00
54882;BME280;40775;51.448;4.742;2023-02-19T10:26:51;102409.44;;;11.02;100.00
54882;BME280;40775;51.448;4.742;2023-02-19T10:29:19;102425.06;;;10.99;100.00
54882;BME280;40775;51.448;4.742;2023-02-19T10:31:47;102410.19;;;10.99;100.00
54882;BME280;40775;51.448;4.742;2023-02-19T10:34:21;102411.94;;;11.20;100.00
54882;BME280;40775;51.448;4.742;2023-02-19T10:36:50;102422.91;;;11.09;100.00
54882;BME280;40775;51.448;4.742;2023-02-19T10:41:51;102441.88;;;11.02;100.00
54882;BME280;40775;51.448;4.742;2023-02-19T10:44:27;102447.88;;;11.00;100.00
54882;BME280;40775;51.448;4.742;2023-02-19T10:46:58;102453.34;;;10.85;100.00
54882;BME280;40775;51.448;4.742;2023-02-19T10:49:38;102450.09;;;10.91;100.00
54882;BME280;40775;51.448;4.742;2023-02-19T10:52:14;102450.06;;;11.10;100.00
54882;BME280;40775;51.448;4.742;2023-02-19T10:54:45;102459.69;;;11.09;100.00
54882;BME280;40775;51.448;4.742;2023-02-19T11:02:20;102461.22;;;10.85;100.00
54882;BME280;40775;51.448;4.742;2023-02-19T11:07:52;102456.44;;;11.15;100.00
54882;BME280;40775;51.448;4.742;2023-02-19T11:10:38;102449.38;;;11.14;100.00
54882;BME280;40775;51.448;4.742;2023-02-19T11:13:15;102449.94;;;11.07;100.00
54882;BME280;40775;51.448;4.742;2023-02-19T11:15:52;102450.59;;;11.22;100.00
54882;BME280;40775;51.448;4.742;2023-02-19T11:18:26;102460.72;;;11.13;100.00
54882;BME280;40775;51.448;4.742;2023-02-19T11:21:06;102444.91;;;11.32;100.00
54882;BME280;40775;51.448;4.742;2023-02-19T11:23:46;102447.44;;;11.29;100.00
54882;BME280;40775;51.448;4.742;2023-02-19T11:26:24;102445.47;;;11.04;100.00
54882;BME280;40775;51.448;4.742;2023-02-19T11:29:00;102447.56;;;11.32;100.00
54882;BME280;40775;51.448;4.742;2023-02-19T11:31:32;102447.28;;;11.26;100.00
54882;BME280;40775;51.448;4.742;2023-02-19T11:36:41;102451.94;;;11.12;100.00
54882;BME280;40775;51.448;4.742;2023-02-19T12:01:42;102419.19;;;11.67;100.00
54882;BME280;40775;51.448;4.742;2023-02-19T12:10:49;102412.75;;;12.02;100.00
54882;BME280;40775;51.448;4.742;2023-02-19T12:22:20;102394.53;;;12.06;100.00
54882;BME280;40775;51.448;4.742;2023-02-19T12:33:59;102415.69;;;11.87;100.00
54882;BME280;40775;51.448;4.742;2023-02-19T12:40:09;102405.38;;;11.72;100.00
54882;BME280;40775;51.448;4.742;2023-02-19T12:51:49;102443.28;;;11.55;100.00
54882;BME280;40775;51.448;4.742;2023-02-19T12:57:03;102451.91;;;11.73;100.00
54882;BME280;40775;51.448;4.742;2023-02-19T12:59:47;102449.69;;;11.62;100.00
54882;BME280;40775;51.448;4.742;2023-02-19T13:02:28;102455.41;;;11.52;100.00
54882;BME280;40775;51.448;4.742;2023-02-19T13:05:21;102456.53;;;11.37;100.00
54882;BME280;40775;51.448;4.742;2023-02-19T13:11:17;102473.13;;;10.96;100.00
54882;BME280;40775;51.448;4.742;2023-02-19T13:13:56;102486.22;;;11.35;100.00
54882;BME280;40775;51.448;4.742;2023-02-19T13:16:25;102500.97;;;11.12;100.00
54882;BME280;40775;51.448;4.742;2023-02-19T13:19:02;102497.66;;;11.77;100.00
54882;BME280;40775;51.448;4.742;2023-02-19T13:21:35;102508.50;;;11.64;100.00
54882;BME280;40775;51.448;4.742;2023-02-19T13:24:31;102503.97;;;11.60;100.00
54882;BME280;40775;51.448;4.742;2023-02-19T13:36:52;102514.53;;;11.61;100.00
54882;BME280;40775;51.448;4.742;2023-02-19T13:39:21;102515.91;;;11.13;100.00
54882;BME280;40775;51.448;4.742;2023-02-19T13:41:54;102526.84;;;11.22;100.00
54882;BME280;40775;51.448;4.742;2023-02-19T13:44:28;102520.34;;;11.33;100.00
54882;BME280;40775;51.448;4.742;2023-02-19T13:46:56;102527.31;;;11.52;100.00
54882;BME280;40775;51.448;4.742;2023-02-19T14:03:46;102554.97;;;11.23;100.00
54882;BME280;40775;51.448;4.742;2023-02-19T14:06:13;102546.56;;;11.32;100.00
54882;BME280;40775;51.448;4.742;2023-02-19T14:08:55;102542.34;;;11.16;100.00
54882;BME280;40775;51.448;4.742;2023-02-19T14:17:41;102550.34;;;11.19;100.00
54882;BME280;40775;51.448;4.742;2023-02-19T14:26:03;102568.16;;;11.05;100.00
54882;BME280;40775;51.448;4.742;2023-02-19T14:28:43;102551.00;;;11.13;100.00
54882;BME280;40775;51.448;4.742;2023-02-19T14:31:29;102558.78;;;10.93;100.00
54882;BME280;40775;51.448;4.742;2023-02-19T14:34:21;102567.81;;;10.98;100.00
54882;BME280;40775;51.448;4.742;2023-02-19T14:36:58;102587.13;;;10.80;100.00
54882;BME280;40775;51.448;4.742;2023-02-19T14:39:35;102592.38;;;10.80;100.00
54882;BME280;40775;51.448;4.742;2023-02-19T14:42:11;102583.81;;;10.67;100.00
54882;BME280;40775;51.448;4.742;2023-02-19T14:44:54;102589.63;;;10.77;100.00
54882;BME280;40775;51.448;4.742;2023-02-19T14:47:26;102583.09;;;10.69;100.00
54882;BME280;40775;51.448;4.742;2023-02-19T14:50:08;102594.25;;;10.83;100.00
54882;BME280;40775;51.448;4.742;2023-02-19T14:52:43;102591.44;;;10.61;100.00
54882;BME280;40775;51.448;4.742;2023-02-19T14:55:34;102597.28;;;10.55;100.00
54882;BME280;40775;51.448;4.742;2023-02-19T14:58:11;102591.13;;;10.55;100.00
54882;BME280;40775;51.448;4.742;2023-02-19T15:00:41;102599.84;;;10.71;100.00
54882;BME280;40775;51.448;4.742;2023-02-19T15:03:34;102590.22;;;10.72;100.00
54882;BME280;40775;51.448;4.742;2023-02-19T15:06:13;102578.44;;;10.64;100.00
54882;BME280;40775;51.448;4.742;2023-02-19T15:08:47;102576.56;;;10.61;100.00
54882;BME280;40775;51.448;4.742;2023-02-19T15:11:22;102572.16;;;10.25;100.00
54882;BME280;40775;51.448;4.742;2023-02-19T15:13:54;102573.38;;;10.49;100.00
54882;BME280;40775;51.448;4.742;2023-02-19T15:16:24;102567.72;;;10.59;100.00
54882;BME280;40775;51.448;4.742;2023-02-19T15:18:55;102565.44;;;10.67;100.00
54882;BME280;40775;51.448;4.742;2023-02-19T15:21:28;102560.53;;;10.55;100.00
54882;BME280;40775;51.448;4.742;2023-02-19T15:24:00;102559.16;;;10.63;100.00
54882;BME280;40775;51.448;4.742;2023-02-19T15:26:39;102553.78;;;10.42;100.00